sensor_id;sensor_type;location;lat;lon;timestamp;P1;durP1;ratioP1;P2;durP2;ratioP2
41233;SDS011;26968;42.686;23.352;2022-11-06T00:00:39;63.72;;;33.83;;
41233;SDS011;26968;42.686;23.352;2022-11-06T00:03:05;67.35;;;33.83;;
41233;SDS011;26968;42.686;23.352;2022-11-06T00:05:31;56.03;;;31.45;;
41233;SDS011;26968;42.686;23.352;2022-11-06T00:08:24;63.33;;;33.45;;
41233;SDS011;26968;42.686;23.352;2022-11-06T00:10:57;64.57;;;31.48;;
41233;SDS011;26968;42.686;23.352;2022-11-06T00:13:23;62.13;;;32.17;;
41233;SDS011;26968;42.686;23.352;2022-11-06T00:15:49;64.68;;;31.42;;
41233;SDS011;26968;42.686;23.352;2022-11-06T00:18:14;63.17;;;32.05;;
41233;SDS011;26968;42.686;23.352;2022-11-06T00:20:40;65.32;;;30.63;;
41233;SDS011;26968;42.686;23.352;2022-11-06T00:23:05;65.03;;;31.50;;
41233;SDS011;26968;42.686;23.352;2022-11-06T00:25:30;64.43;;;32.50;;
41233;SDS011;26968;42.686;23.352;2022-11-06T00:27:56;56.42;;;31.05;;
41233;SDS011;26968;42.686;23.352;2022-11-06T00:30:21;65.22;;;32.05;;
41233;SDS011;26968;42.686;23.352;2022-11-06T00:32:47;61.70;;;32.63;;
41233;SDS011;26968;42.686;23.352;2022-11-06T00:35:12;53.45;;;31.73;;
41233;SDS011;26968;42.686;23.352;2022-11-06T00:37:38;68.03;;;30.70;;
41233;SDS011;26968;42.686;23.352;2022-11-06T00:40:04;65.00;;;31.60;;
41233;SDS011;26968;42.686;23.352;2022-11-06T00:42:30;53.40;;;29.35;;
41233;SDS011;26968;42.686;23.352;2022-11-06T00:44:55;59.13;;;29.42;;
41233;SDS011;26968;42.686;23.352;2022-11-06T00:47:20;59.22;;;30.85;;
41233;SDS011;26968;42.686;23.352;2022-11-06T00:49:46;55.08;;;30.42;;
41233;SDS011;26968;42.686;23.352;2022-11-06T00:52:11;53.58;;;29.85;;
41233;SDS011;26968;42.686;23.352;2022-11-06T00:54:37;63.00;;;29.58;;
41233;SDS011;26968;42.686;23.352;2022-11-06T00:57:02;59.08;;;31.25;;
41233;SDS011;26968;42.686;23.352;2022-11-06T00:59:28;63.72;;;32.17;;
41233;SDS011;26968;42.686;23.352;2022-11-06T01:01:53;59.80;;;31.00;;
41233;SDS011;26968;42.686;23.352;2022-11-06T01:04:19;57.50;;;31.70;;
41233;SDS011;26968;42.686;23.352;2022-11-06T01:06:48;57.13;;;30.42;;
41233;SDS011;26968;42.686;23.352;2022-11-06T01:09:16;62.85;;;31.13;;
41233;SDS011;26968;42.686;23.352;2022-11-06T01:11:44;55.67;;;29.95;;
41233;SDS011;26968;42.686;23.352;2022-11-06T01:14:12;60.53;;;29.75;;
41233;SDS011;26968;42.686;23.352;2022-11-06T01:16:39;54.05;;;29.45;;
41233;SDS011;26968;42.686;23.352;2022-11-06T01:19:05;62.28;;;29.63;;
41233;SDS011;26968;42.686;23.352;2022-11-06T01:21:32;56.78;;;29.27;;
41233;SDS011;26968;42.686;23.352;2022-11-06T01:24:01;68.32;;;30.88;;
41233;SDS011;26968;42.686;23.352;2022-11-06T01:26:29;59.58;;;30.15;;
41233;SDS011;26968;42.686;23.352;2022-11-06T01:28:55;57.38;;;30.60;;
41233;SDS011;26968;42.686;23.352;2022-11-06T01:31:23;54.67;;;30.08;;
41233;SDS011;26968;42.686;23.352;2022-11-06T01:33:50;52.60;;;30.52;;
41233;SDS011;26968;42.686;23.352;2022-11-06T01:36:18;59.53;;;30.42;;
41233;SDS011;26968;42.686;23.352;2022-11-06T01:38:45;52.90;;;27.35;;
41233;SDS011;26968;42.686;23.352;2022-11-06T01:41:32;57.80;;;28.27;;
41233;SDS011;26968;42.686;23.352;2022-11-06T01:44:04;56.45;;;28.42;;
41233;SDS011;26968;42.686;23.352;2022-11-06T01:46:50;53.35;;;26.77;;
41233;SDS011;26968;42.686;23.352;2022-11-06T01:49:15;45.53;;;23.45;;
41233;SDS011;26968;42.686;23.352;2022-11-06T01:51:52;53.88;;;24.95;;
41233;SDS011;26968;42.686;23.352;2022-11-06T01:54:20;45.55;;;23.02;;
41233;SDS011;26968;42.686;23.352;2022-11-06T01:56:48;42.97;;;21.55;;
41233;SDS011;26968;42.686;23.352;2022-11-06T01:59:16;43.13;;;20.13;;
41233;SDS011;26968;42.686;23.352;2022-11-06T02:01:46;38.67;;;20.33;;
41233;SDS011;26968;42.686;23.352;2022-11-06T02:06:42;44.67;;;19.23;;
41233;SDS011;26968;42.686;23.352;2022-11-06T02:09:09;32.85;;;19.40;;
41233;SDS011;26968;42.686;23.352;2022-11-06T02:11:43;40.80;;;18.10;;
41233;SDS011;26968;42.686;23.352;2022-11-06T02:25:12;38.33;;;17.67;;
41233;SDS011;26968;42.686;23.352;2022-11-06T02:28:10;38.70;;;18.08;;
41233;SDS011;26968;42.686;23.352;2022-11-06T02:30:45;31.02;;;16.38;;
41233;SDS011;26968;42.686;23.352;2022-11-06T02:33:14;38.10;;;17.98;;
41233;SDS011;26968;42.686;23.352;2022-11-06T02:38:13;35.55;;;17.85;;
41233;SDS011;26968;42.686;23.352;2022-11-06T02:40:44;31.50;;;17.15;;
41233;SDS011;26968;42.686;23.352;2022-11-06T02:43:13;30.70;;;16.92;;
41233;SDS011;26968;42.686;23.352;2022-11-06T02:45:45;37.50;;;16.63;;
41233;SDS011;26968;42.686;23.352;2022-11-06T02:48:15;32.35;;;16.40;;
41233;SDS011;26968;42.686;23.352;2022-11-06T02:50:46;30.23;;;16.92;;
41233;SDS011;26968;42.686;23.352;2022-11-06T02:53:15;29.65;;;15.35;;
41233;SDS011;26968;42.686;23.352;2022-11-06T02:55:46;33.90;;;15.45;;
41233;SDS011;26968;42.686;23.352;2022-11-06T03:01:20;33.25;;;16.25;;
41233;SDS011;26968;42.686;23.352;2022-11-06T03:04:02;31.20;;;15.63;;
41233;SDS011;26968;42.686;23.352;2022-11-06T03:07:05;36.33;;;15.82;;
41233;SDS011;26968;42.686;23.352;2022-11-06T03:09:26;30.25;;;16.05;;
41233;SDS011;26968;42.686;23.352;2022-11-06T03:12:17;27.55;;;14.30;;
41233;SDS011;26968;42.686;23.352;2022-11-06T03:14:56;36.38;;;15.38;;
41233;SDS011;26968;42.686;23.352;2022-11-06T03:20:21;23.80;;;13.50;;
41233;SDS011;26968;42.686;23.352;2022-11-06T03:23:17;26.98;;;13.98;;
41233;SDS011;26968;42.686;23.352;2022-11-06T03:25:50;23.38;;;13.57;;
41233;SDS011;26968;42.686;23.352;2022-11-06T03:28:34;23.15;;;12.60;;
41233;SDS011;26968;42.686;23.352;2022-11-06T03:31:16;27.13;;;13.02;;
41233;SDS011;26968;42.686;23.352;2022-11-06T03:33:53;26.33;;;13.07;;
41233;SDS011;26968;42.686;23.352;2022-11-06T03:36:24;25.35;;;13.07;;
41233;SDS011;26968;42.686;23.352;2022-11-06T03:38:55;24.58;;;12.43;;
41233;SDS011;26968;42.686;23.352;2022-11-06T03:41:42;27.83;;;11.95;;
41233;SDS011;26968;42.686;23.352;2022-11-06T03:44:13;24.08;;;13.35;;
41233;SDS011;26968;42.686;23.352;2022-11-06T03:46:43;23.85;;;12.88;;
41233;SDS011;26968;42.686;23.352;2022-11-06T03:49:16;23.65;;;11.98;;
41233;SDS011;26968;42.686;23.352;2022-11-06T03:51:49;23.83;;;11.75;;
41233;SDS011;26968;42.686;23.352;2022-11-06T03:54:25;34.63;;;12.63;;
41233;SDS011;26968;42.686;23.352;2022-11-06T03:56:56;24.55;;;12.20;;
41233;SDS011;26968;42.686;23.352;2022-11-06T03:59:28;25.00;;;10.52;;
41233;SDS011;26968;42.686;23.352;2022-11-06T04:01:58;20.38;;;11.30;;
41233;SDS011;26968;42.686;23.352;2022-11-06T04:04:41;26.92;;;12.73;;
41233;SDS011;26968;42.686;23.352;2022-11-06T04:07:18;26.27;;;12.23;;
41233;SDS011;26968;42.686;23.352;2022-11-06T04:09:48;22.00;;;12.75;;
41233;SDS011;26968;42.686;23.352;2022-11-06T04:12:36;23.35;;;12.13;;
41233;SDS011;26968;42.686;23.352;2022-11-06T04:15:30;30.92;;;12.10;;
41233;SDS011;26968;42.686;23.352;2022-11-06T04:17:59;25.88;;;12.23;;
41233;SDS011;26968;42.686;23.352;2022-11-06T04:20:26;25.73;;;11.40;;
41233;SDS011;26968;42.686;23.352;2022-11-06T04:26:08;21.13;;;10.48;;
41233;SDS011;26968;42.686;23.352;2022-11-06T04:39:49;23.70;;;11.30;;
41233;SDS011;26968;42.686;23.352;2022-11-06T04:45:26;26.35;;;12.13;;
41233;SDS011;26968;42.686;23.352;2022-11-06T04:47:57;23.42;;;13.05;;
41233;SDS011;26968;42.686;23.352;2022-11-06T04:50:24;29.67;;;12.75;;
41233;SDS011;26968;42.686;23.352;2022-11-06T04:52:52;23.73;;;12.80;;
41233;SDS011;26968;42.686;23.352;2022-11-06T04:55:19;29.70;;;12.88;;
41233;SDS011;26968;42.686;23.352;2022-11-06T04:57:46;24.30;;;13.13;;
41233;SDS011;26968;42.686;23.352;2022-11-06T05:00:12;23.40;;;13.05;;
41233;SDS011;26968;42.686;23.352;2022-11-06T05:02:39;31.60;;;14.88;;
41233;SDS011;26968;42.686;23.352;2022-11-06T05:05:05;26.40;;;12.82;;
41233;SDS011;26968;42.686;23.352;2022-11-06T05:07:30;28.63;;;12.98;;
41233;SDS011;26968;42.686;23.352;2022-11-06T05:09:56;29.02;;;14.52;;
41233;SDS011;26968;42.686;23.352;2022-11-06T05:12:21;33.28;;;14.32;;
41233;SDS011;26968;42.686;23.352;2022-11-06T05:14:47;31.50;;;13.50;;
41233;SDS011;26968;42.686;23.352;2022-11-06T05:17:12;31.80;;;13.45;;
41233;SDS011;26968;42.686;23.352;2022-11-06T05:19:38;27.95;;;14.52;;
41233;SDS011;26968;42.686;23.352;2022-11-06T05:22:03;32.95;;;14.88;;
41233;SDS011;26968;42.686;23.352;2022-11-06T05:24:47;25.63;;;13.13;;
41233;SDS011;26968;42.686;23.352;2022-11-06T05:27:13;27.70;;;13.15;;
41233;SDS011;26968;42.686;23.352;2022-11-06T05:29:38;23.55;;;12.75;;
41233;SDS011;26968;42.686;23.352;2022-11-06T05:32:04;29.50;;;13.32;;
41233;SDS011;26968;42.686;23.352;2022-11-06T05:34:29;24.95;;;13.27;;
41233;SDS011;26968;42.686;23.352;2022-11-06T05:36:55;22.65;;;12.57;;
41233;SDS011;26968;42.686;23.352;2022-11-06T05:39:21;32.70;;;14.73;;
41233;SDS011;26968;42.686;23.352;2022-11-06T05:41:47;31.00;;;13.77;;
41233;SDS011;26968;42.686;23.352;2022-11-06T05:44:12;24.42;;;14.25;;
41233;SDS011;26968;42.686;23.352;2022-11-06T05:46:39;25.63;;;13.07;;
41233;SDS011;26968;42.686;23.352;2022-11-06T05:49:04;35.33;;;15.15;;
41233;SDS011;26968;42.686;23.352;2022-11-06T05:51:30;27.88;;;13.38;;
41233;SDS011;26968;42.686;23.352;2022-11-06T05:53:55;26.13;;;13.60;;
41233;SDS011;26968;42.686;23.352;2022-11-06T05:56:21;31.00;;;14.38;;
41233;SDS011;26968;42.686;23.352;2022-11-06T05:58:46;40.50;;;14.88;;
41233;SDS011;26968;42.686;23.352;2022-11-06T06:01:11;27.15;;;14.77;;
41233;SDS011;26968;42.686;23.352;2022-11-06T06:03:37;28.80;;;14.45;;
41233;SDS011;26968;42.686;23.352;2022-11-06T06:06:02;29.75;;;15.77;;
41233;SDS011;26968;42.686;23.352;2022-11-06T06:08:28;33.38;;;14.82;;
41233;SDS011;26968;42.686;23.352;2022-11-06T06:10:53;31.83;;;14.43;;
41233;SDS011;26968;42.686;23.352;2022-11-06T06:13:19;28.98;;;14.80;;
41233;SDS011;26968;42.686;23.352;2022-11-06T06:15:44;31.55;;;14.40;;
41233;SDS011;26968;42.686;23.352;2022-11-06T06:18:10;35.25;;;13.80;;
41233;SDS011;26968;42.686;23.352;2022-11-06T06:20:36;29.27;;;14.13;;
41233;SDS011;26968;42.686;23.352;2022-11-06T06:23:01;27.98;;;14.98;;
41233;SDS011;26968;42.686;23.352;2022-11-06T06:25:27;29.45;;;15.90;;
41233;SDS011;26968;42.686;23.352;2022-11-06T06:27:54;30.73;;;15.82;;
41233;SDS011;26968;42.686;23.352;2022-11-06T06:30:21;28.33;;;17.00;;
41233;SDS011;26968;42.686;23.352;2022-11-06T06:32:47;30.17;;;16.33;;
41233;SDS011;26968;42.686;23.352;2022-11-06T06:35:13;35.67;;;17.77;;
41233;SDS011;26968;42.686;23.352;2022-11-06T06:37:39;39.72;;;16.08;;
41233;SDS011;26968;42.686;23.352;2022-11-06T06:40:04;36.10;;;18.30;;
41233;SDS011;26968;42.686;23.352;2022-11-06T06:42:30;35.53;;;17.05;;
41233;SDS011;26968;42.686;23.352;2022-11-06T06:44:56;37.83;;;16.38;;
41233;SDS011;26968;42.686;23.352;2022-11-06T06:47:22;29.15;;;16.58;;
41233;SDS011;26968;42.686;23.352;2022-11-06T06:49:48;29.13;;;15.75;;
41233;SDS011;26968;42.686;23.352;2022-11-06T06:52:13;24.63;;;16.00;;
41233;SDS011;26968;42.686;23.352;2022-11-06T06:54:39;34.63;;;15.65;;
41233;SDS011;26968;42.686;23.352;2022-11-06T06:57:06;36.03;;;16.67;;
41233;SDS011;26968;42.686;23.352;2022-11-06T06:59:32;32.38;;;16.77;;
41233;SDS011;26968;42.686;23.352;2022-11-06T07:01:57;32.58;;;17.20;;
41233;SDS011;26968;42.686;23.352;2022-11-06T07:04:23;35.85;;;17.08;;
41233;SDS011;26968;42.686;23.352;2022-11-06T07:06:48;32.92;;;16.15;;
41233;SDS011;26968;42.686;23.352;2022-11-06T07:09:14;36.78;;;16.45;;
41233;SDS011;26968;42.686;23.352;2022-11-06T07:11:39;31.13;;;16.23;;
41233;SDS011;26968;42.686;23.352;2022-11-06T07:14:05;30.27;;;15.60;;
41233;SDS011;26968;42.686;23.352;2022-11-06T07:16:30;26.55;;;16.45;;
41233;SDS011;26968;42.686;23.352;2022-11-06T07:18:56;27.77;;;16.50;;
41233;SDS011;26968;42.686;23.352;2022-11-06T07:21:22;29.02;;;17.05;;
41233;SDS011;26968;42.686;23.352;2022-11-06T07:23:48;34.45;;;17.05;;
41233;SDS011;26968;42.686;23.352;2022-11-06T07:26:14;28.13;;;16.10;;
41233;SDS011;26968;42.686;23.352;2022-11-06T07:28:40;38.38;;;16.90;;
41233;SDS011;26968;42.686;23.352;2022-11-06T07:31:06;34.45;;;16.77;;
41233;SDS011;26968;42.686;23.352;2022-11-06T07:33:32;36.08;;;16.90;;
41233;SDS011;26968;42.686;23.352;2022-11-06T07:36:06;28.92;;;17.38;;
41233;SDS011;26968;42.686;23.352;2022-11-06T07:38:33;32.13;;;16.77;;
41233;SDS011;26968;42.686;23.352;2022-11-06T07:41:00;28.00;;;16.90;;
41233;SDS011;26968;42.686;23.352;2022-11-06T07:43:29;36.95;;;19.15;;
41233;SDS011;26968;42.686;23.352;2022-11-06T07:46:00;38.85;;;18.70;;
41233;SDS011;26968;42.686;23.352;2022-11-06T07:48:27;41.63;;;18.08;;
41233;SDS011;26968;42.686;23.352;2022-11-06T07:50:53;32.22;;;17.88;;
41233;SDS011;26968;42.686;23.352;2022-11-06T07:53:18;32.30;;;17.50;;
41233;SDS011;26968;42.686;23.352;2022-11-06T07:55:51;35.20;;;18.35;;
41233;SDS011;26968;42.686;23.352;2022-11-06T07:58:18;36.70;;;18.98;;
41233;SDS011;26968;42.686;23.352;2022-11-06T08:00:47;31.58;;;16.58;;
41233;SDS011;26968;42.686;23.352;2022-11-06T08:03:14;37.00;;;17.60;;
41233;SDS011;26968;42.686;23.352;2022-11-06T08:05:40;34.58;;;17.55;;
41233;SDS011;26968;42.686;23.352;2022-11-06T08:08:05;34.05;;;16.80;;
41233;SDS011;26968;42.686;23.352;2022-11-06T08:10:31;32.42;;;16.80;;
41233;SDS011;26968;42.686;23.352;2022-11-06T08:12:58;38.10;;;18.33;;
41233;SDS011;26968;42.686;23.352;2022-11-06T08:15:25;37.70;;;17.23;;
41233;SDS011;26968;42.686;23.352;2022-11-06T08:17:50;31.35;;;18.00;;
41233;SDS011;26968;42.686;23.352;2022-11-06T08:20:15;29.10;;;18.63;;
41233;SDS011;26968;42.686;23.352;2022-11-06T08:22:41;32.35;;;18.60;;
41233;SDS011;26968;42.686;23.352;2022-11-06T08:25:06;36.35;;;20.92;;
41233;SDS011;26968;42.686;23.352;2022-11-06T08:27:33;34.30;;;20.13;;
41233;SDS011;26968;42.686;23.352;2022-11-06T08:29:58;42.30;;;23.08;;
41233;SDS011;26968;42.686;23.352;2022-11-06T08:32:23;43.38;;;23.83;;
41233;SDS011;26968;42.686;23.352;2022-11-06T08:34:49;41.72;;;22.75;;
41233;SDS011;26968;42.686;23.352;2022-11-06T08:37:14;48.00;;;22.85;;
41233;SDS011;26968;42.686;23.352;2022-11-06T08:39:39;47.22;;;25.77;;
41233;SDS011;26968;42.686;23.352;2022-11-06T08:42:05;42.03;;;24.63;;
41233;SDS011;26968;42.686;23.352;2022-11-06T08:44:31;43.72;;;24.67;;
41233;SDS011;26968;42.686;23.352;2022-11-06T08:46:56;41.97;;;25.20;;
41233;SDS011;26968;42.686;23.352;2022-11-06T08:49:22;47.63;;;25.30;;
41233;SDS011;26968;42.686;23.352;2022-11-06T08:51:47;49.88;;;25.33;;
41233;SDS011;26968;42.686;23.352;2022-11-06T08:54:12;40.67;;;24.38;;
41233;SDS011;26968;42.686;23.352;2022-11-06T08:56:38;41.72;;;26.30;;
41233;SDS011;26968;42.686;23.352;2022-11-06T08:59:03;41.83;;;24.02;;
41233;SDS011;26968;42.686;23.352;2022-11-06T09:01:29;48.42;;;26.17;;
41233;SDS011;26968;42.686;23.352;2022-11-06T09:03:54;43.35;;;26.33;;
41233;SDS011;26968;42.686;23.352;2022-11-06T09:06:21;42.00;;;26.73;;
41233;SDS011;26968;42.686;23.352;2022-11-06T09:08:46;39.00;;;26.90;;
41233;SDS011;26968;42.686;23.352;2022-11-06T09:11:12;40.60;;;24.67;;
41233;SDS011;26968;42.686;23.352;2022-11-06T09:13:37;42.20;;;26.42;;
41233;SDS011;26968;42.686;23.352;2022-11-06T09:16:03;44.78;;;25.73;;
41233;SDS011;26968;42.686;23.352;2022-11-06T09:18:30;40.80;;;24.10;;
41233;SDS011;26968;42.686;23.352;2022-11-06T09:20:55;36.30;;;22.10;;
41233;SDS011;26968;42.686;23.352;2022-11-06T09:23:22;33.28;;;22.85;;
41233;SDS011;26968;42.686;23.352;2022-11-06T09:25:48;35.80;;;24.30;;
41233;SDS011;26968;42.686;23.352;2022-11-06T09:28:14;36.45;;;21.60;;
41233;SDS011;26968;42.686;23.352;2022-11-06T09:30:39;31.02;;;20.30;;
41233;SDS011;26968;42.686;23.352;2022-11-06T09:33:04;31.80;;;21.08;;
41233;SDS011;26968;42.686;23.352;2022-11-06T09:35:31;33.83;;;20.83;;
41233;SDS011;26968;42.686;23.352;2022-11-06T09:38:05;28.10;;;19.00;;
41233;SDS011;26968;42.686;23.352;2022-11-06T09:43:06;27.20;;;17.90;;
41233;SDS011;26968;42.686;23.352;2022-11-06T09:45:39;29.75;;;18.48;;
41233;SDS011;26968;42.686;23.352;2022-11-06T09:50:35;28.38;;;17.58;;
41233;SDS011;26968;42.686;23.352;2022-11-06T09:53:16;26.92;;;17.30;;
41233;SDS011;26968;42.686;23.352;2022-11-06T09:56:03;22.60;;;16.23;;
41233;SDS011;26968;42.686;23.352;2022-11-06T09:58:32;22.42;;;15.63;;
41233;SDS011;26968;42.686;23.352;2022-11-06T10:03:55;21.00;;;15.43;;
41233;SDS011;26968;42.686;23.352;2022-11-06T10:06:23;28.58;;;16.30;;
41233;SDS011;26968;42.686;23.352;2022-11-06T10:08:50;20.85;;;15.27;;
41233;SDS011;26968;42.686;23.352;2022-11-06T10:16:37;29.90;;;17.17;;
41233;SDS011;26968;42.686;23.352;2022-11-06T10:21:58;28.27;;;15.65;;
41233;SDS011;26968;42.686;23.352;2022-11-06T10:27:39;18.90;;;13.53;;
41233;SDS011;26968;42.686;23.352;2022-11-06T10:30:10;21.23;;;15.23;;
41233;SDS011;26968;42.686;23.352;2022-11-06T10:33:01;20.33;;;13.50;;
41233;SDS011;26968;42.686;23.352;2022-11-06T10:35:39;21.15;;;13.73;;
41233;SDS011;26968;42.686;23.352;2022-11-06T10:40:42;12.88;;;10.82;;
41233;SDS011;26968;42.686;23.352;2022-11-06T10:48:28;12.52;;;9.27;;
41233;SDS011;26968;42.686;23.352;2022-11-06T10:53:31;14.40;;;9.75;;
41233;SDS011;26968;42.686;23.352;2022-11-06T10:58:54;21.05;;;13.20;;
41233;SDS011;26968;42.686;23.352;2022-11-06T11:01:19;21.08;;;15.40;;
41233;SDS011;26968;42.686;23.352;2022-11-06T11:03:45;20.13;;;14.57;;
41233;SDS011;26968;42.686;23.352;2022-11-06T11:06:11;19.80;;;13.73;;
41233;SDS011;26968;42.686;23.352;2022-11-06T11:08:44;19.38;;;13.18;;
41233;SDS011;26968;42.686;23.352;2022-11-06T11:13:39;19.27;;;10.88;;
41233;SDS011;26968;42.686;23.352;2022-11-06T11:16:19;17.75;;;10.85;;
41233;SDS011;26968;42.686;23.352;2022-11-06T11:18:50;19.05;;;11.70;;
41233;SDS011;26968;42.686;23.352;2022-11-06T11:23:44;22.20;;;13.30;;
41233;SDS011;26968;42.686;23.352;2022-11-06T11:28:42;17.67;;;13.50;;
41233;SDS011;26968;42.686;23.352;2022-11-06T11:31:14;21.08;;;14.52;;
41233;SDS011;26968;42.686;23.352;2022-11-06T11:33:46;20.15;;;15.73;;
41233;SDS011;26968;42.686;23.352;2022-11-06T11:36:16;21.42;;;15.25;;
41233;SDS011;26968;42.686;23.352;2022-11-06T11:38:42;26.42;;;18.25;;
41233;SDS011;26968;42.686;23.352;2022-11-06T11:43:33;26.83;;;17.33;;
41233;SDS011;26968;42.686;23.352;2022-11-06T11:48:47;32.25;;;18.30;;
41233;SDS011;26968;42.686;23.352;2022-11-06T11:51:36;28.02;;;19.10;;
41233;SDS011;26968;42.686;23.352;2022-11-06T11:54:06;26.63;;;16.30;;
41233;SDS011;26968;42.686;23.352;2022-11-06T11:59:17;30.92;;;18.45;;
41233;SDS011;26968;42.686;23.352;2022-11-06T12:01:45;26.58;;;17.05;;
41233;SDS011;26968;42.686;23.352;2022-11-06T12:06:37;29.90;;;15.70;;
41233;SDS011;26968;42.686;23.352;2022-11-06T12:09:14;19.92;;;13.65;;
41233;SDS011;26968;42.686;23.352;2022-11-06T12:11:41;22.40;;;13.63;;
41233;SDS011;26968;42.686;23.352;2022-11-06T12:14:52;19.58;;;12.93;;
41233;SDS011;26968;42.686;23.352;2022-11-06T12:17:01;21.27;;;13.75;;
41233;SDS011;26968;42.686;23.352;2022-11-06T12:19:33;21.48;;;14.85;;
41233;SDS011;26968;42.686;23.352;2022-11-06T12:22:06;20.80;;;14.55;;
41233;SDS011;26968;42.686;23.352;2022-11-06T12:24:46;21.60;;;13.40;;
41233;SDS011;26968;42.686;23.352;2022-11-06T12:27:17;19.38;;;13.82;;
41233;SDS011;26968;42.686;23.352;2022-11-06T12:29:52;18.15;;;13.13;;
41233;SDS011;26968;42.686;23.352;2022-11-06T12:32:38;20.45;;;13.27;;
41233;SDS011;26968;42.686;23.352;2022-11-06T12:35:14;22.02;;;13.40;;
41233;SDS011;26968;42.686;23.352;2022-11-06T12:37:51;18.70;;;11.98;;
41233;SDS011;26968;42.686;23.352;2022-11-06T12:40:27;14.95;;;10.43;;
41233;SDS011;26968;42.686;23.352;2022-11-06T12:59:10;17.92;;;12.80;;
41233;SDS011;26968;42.686;23.352;2022-11-06T13:01:44;16.13;;;11.18;;
41233;SDS011;26968;42.686;23.352;2022-11-06T13:09:49;17.13;;;9.27;;
41233;SDS011;26968;42.686;23.352;2022-11-06T13:12:28;14.45;;;9.85;;
41233;SDS011;26968;42.686;23.352;2022-11-06T13:17:48;16.30;;;9.80;;
41233;SDS011;26968;42.686;23.352;2022-11-06T13:23:03;14.10;;;9.02;;
41233;SDS011;26968;42.686;23.352;2022-11-06T13:25:41;11.55;;;7.97;;
41233;SDS011;26968;42.686;23.352;2022-11-06T13:28:23;12.77;;;8.30;;
41233;SDS011;26968;42.686;23.352;2022-11-06T13:31:04;14.00;;;8.85;;
41233;SDS011;26968;42.686;23.352;2022-11-06T13:33:35;15.23;;;8.85;;
41233;SDS011;26968;42.686;23.352;2022-11-06T13:36:06;15.73;;;8.77;;
41233;SDS011;26968;42.686;23.352;2022-11-06T13:38:54;15.68;;;10.27;;
41233;SDS011;26968;42.686;23.352;2022-11-06T13:41:27;20.27;;;9.93;;
41233;SDS011;26968;42.686;23.352;2022-11-06T13:44:04;15.32;;;9.35;;
41233;SDS011;26968;42.686;23.352;2022-11-06T14:04:37;14.13;;;8.05;;
41233;SDS011;26968;42.686;23.352;2022-11-06T14:07:27;14.02;;;9.18;;
41233;SDS011;26968;42.686;23.352;2022-11-06T14:09:55;15.45;;;8.45;;
41233;SDS011;26968;42.686;23.352;2022-11-06T14:12:21;13.65;;;8.35;;
41233;SDS011;26968;42.686;23.352;2022-11-06T14:14:47;16.35;;;9.40;;
41233;SDS011;26968;42.686;23.352;2022-11-06T14:25:00;12.57;;;8.50;;
41233;SDS011;26968;42.686;23.352;2022-11-06T14:30:23;13.68;;;8.63;;
41233;SDS011;26968;42.686;23.352;2022-11-06T14:33:08;10.82;;;7.88;;
41233;SDS011;26968;42.686;23.352;2022-11-06T14:38:17;12.25;;;8.65;;
41233;SDS011;26968;42.686;23.352;2022-11-06T14:40:55;14.35;;;8.63;;
41233;SDS011;26968;42.686;23.352;2022-11-06T14:43:29;13.75;;;8.25;;
41233;SDS011;26968;42.686;23.352;2022-11-06T14:51:07;14.52;;;8.90;;
41233;SDS011;26968;42.686;23.352;2022-11-06T14:53:45;13.55;;;8.52;;
41233;SDS011;26968;42.686;23.352;2022-11-06T14:56:23;14.20;;;8.82;;
41233;SDS011;26968;42.686;23.352;2022-11-06T15:01:39;17.33;;;7.90;;
41233;SDS011;26968;42.686;23.352;2022-11-06T15:04:14;16.27;;;8.68;;
41233;SDS011;26968;42.686;23.352;2022-11-06T15:06:46;14.40;;;7.78;;
41233;SDS011;26968;42.686;23.352;2022-11-06T15:16:44;14.20;;;8.18;;
41233;SDS011;26968;42.686;23.352;2022-11-06T15:19:45;11.45;;;6.85;;
41233;SDS011;26968;42.686;23.352;2022-11-06T15:22:19;13.13;;;7.93;;
41233;SDS011;26968;42.686;23.352;2022-11-06T15:24:56;12.05;;;6.82;;
41233;SDS011;26968;42.686;23.352;2022-11-06T15:27:29;12.85;;;7.18;;
41233;SDS011;26968;42.686;23.352;2022-11-06T15:29:59;10.40;;;6.10;;
41233;SDS011;26968;42.686;23.352;2022-11-06T15:32:28;13.32;;;7.72;;
41233;SDS011;26968;42.686;23.352;2022-11-06T15:35:02;11.30;;;7.10;;
41233;SDS011;26968;42.686;23.352;2022-11-06T15:37:42;15.75;;;8.45;;
41233;SDS011;26968;42.686;23.352;2022-11-06T15:42:48;13.27;;;7.95;;
41233;SDS011;26968;42.686;23.352;2022-11-06T15:47:40;13.30;;;7.20;;
41233;SDS011;26968;42.686;23.352;2022-11-06T15:50:20;12.23;;;7.90;;
41233;SDS011;26968;42.686;23.352;2022-11-06T15:55:14;12.63;;;8.05;;
41233;SDS011;26968;42.686;23.352;2022-11-06T15:57:51;18.75;;;8.52;;
41233;SDS011;26968;42.686;23.352;2022-11-06T16:00:18;11.25;;;7.78;;
41233;SDS011;26968;42.686;23.352;2022-11-06T16:02:51;13.68;;;7.95;;
41233;SDS011;26968;42.686;23.352;2022-11-06T16:05:27;9.82;;;7.28;;
41233;SDS011;26968;42.686;23.352;2022-11-06T16:07:55;19.15;;;8.95;;
41233;SDS011;26968;42.686;23.352;2022-11-06T16:10:23;24.80;;;9.45;;
41233;SDS011;26968;42.686;23.352;2022-11-06T16:12:50;21.80;;;9.48;;
41233;SDS011;26968;42.686;23.352;2022-11-06T16:20:47;18.83;;;9.52;;
41233;SDS011;26968;42.686;23.352;2022-11-06T16:23:20;24.63;;;10.25;;
41233;SDS011;26968;42.686;23.352;2022-11-06T16:26:34;23.13;;;10.10;;
41233;SDS011;26968;42.686;23.352;2022-11-06T16:28:51;19.65;;;11.60;;
41233;SDS011;26968;42.686;23.352;2022-11-06T16:31:22;17.45;;;11.00;;
41233;SDS011;26968;42.686;23.352;2022-11-06T16:33:53;19.42;;;10.07;;
41233;SDS011;26968;42.686;23.352;2022-11-06T16:36:20;19.10;;;10.10;;
41233;SDS011;26968;42.686;23.352;2022-11-06T16:38:46;21.52;;;13.20;;
41233;SDS011;26968;42.686;23.352;2022-11-06T16:41:15;30.33;;;17.42;;
41233;SDS011;26968;42.686;23.352;2022-11-06T16:49:33;49.30;;;28.83;;
41233;SDS011;26968;42.686;23.352;2022-11-06T16:51:59;53.67;;;29.02;;
41233;SDS011;26968;42.686;23.352;2022-11-06T16:54:25;53.65;;;29.48;;
41233;SDS011;26968;42.686;23.352;2022-11-06T16:56:53;48.35;;;27.42;;
41233;SDS011;26968;42.686;23.352;2022-11-06T16:59:23;44.97;;;25.05;;
41233;SDS011;26968;42.686;23.352;2022-11-06T17:01:50;48.03;;;24.02;;
41233;SDS011;26968;42.686;23.352;2022-11-06T17:04:25;40.28;;;22.77;;
41233;SDS011;26968;42.686;23.352;2022-11-06T17:06:54;36.65;;;21.90;;
41233;SDS011;26968;42.686;23.352;2022-11-06T17:09:30;39.70;;;21.98;;
41233;SDS011;26968;42.686;23.352;2022-11-06T17:11:58;35.83;;;21.95;;
41233;SDS011;26968;42.686;23.352;2022-11-06T17:14:25;39.80;;;24.23;;
41233;SDS011;26968;42.686;23.352;2022-11-06T17:16:52;47.08;;;23.00;;
41233;SDS011;26968;42.686;23.352;2022-11-06T17:19:20;38.25;;;24.20;;
41233;SDS011;26968;42.686;23.352;2022-11-06T17:21:46;43.67;;;23.20;;
41233;SDS011;26968;42.686;23.352;2022-11-06T17:24:13;42.50;;;23.67;;
41233;SDS011;26968;42.686;23.352;2022-11-06T17:27:11;37.78;;;23.02;;
41233;SDS011;26968;42.686;23.352;2022-11-06T17:29:30;40.42;;;23.40;;